Terminal Aerodrome Forecast
Issued by NWS Tallahassee, FL

Home | Current Version | Previous Version | Text Only | Print | Product List | Glossary On
Versions: 1 2 3 4 5 6 7 8 9 10 11 12 13 14 15
000
FTUS42 KTAE 051506 AAB
TAFTLH
TAF AMD
KTLH 051506Z 0515/0612 13005KT P6SM -RA BKN010
      TEMPO 0515/0517 2SM BR BKN002
     FM051800 17007KT 6SM RA OVC015
     FM052000 16007KT 3SM +TSRA SCT008 BKN015CB
     FM060000 15009KT 5SM RA BR VCTS OVC003CB=

USA.gov is the U.S. government's official web portal to all federal, state and local government web resources and services.